イースター島 の空港の天気 - METARとTAF

マタベリ国際空港 ( SCIP / IPC ) - チリ イースター島
飛行場実況気象(Metar)
観測時間11/21 07:00 EAST (11/21 12:00 UTC)
風向・風速南南東 5m/s
視程10km以上
天気現象
全天の4割程度の雲 雲底高度 760m
気温17℃
湿度55%
気圧1018hPa
METARSCIP 211200Z 16010KT 9999 SCT025 17/08 Q1018 NOSIG
過去の天気等 Google飛行場航空写真 Wunderground天気予報

過去48時間のMETAR

飛行場予報(TAF)
発表時間: 11/21 05:45 EAST (11/21 10:45 UTC)
予報対象時間: 21日7時 EAST ~ 22日7時 EAST
風向・風速南 5m/s
視程10km以上
全天の4割程度の雲 雲底高度 760m
全天の8割程度の雲 雲底高度 1520m
21日7時 EAST ~ 21日9時 EAST に一時的に
風向・風速南東 8m/s
視程7000m
天気現象弱いしゅう雨
全天の4割程度の雲 雲底高度 610m
全天の8割程度の雲 雲底高度 1220m
21日10時 EAST ~ 21日12時 EAST に徐々に
風向・風速南東 8m/s
少しの雲 雲底高度 760m
全天の4割程度の雲 雲底高度 1520m
21日15時 EAST ~ 21日20時 EAST に一時的に
風向・風速東南東 10m/s
視程7000m
天気現象弱いしゅう雨
全天の4割程度の雲 雲底高度 610m
全天の8割程度の雲 雲底高度 1220m
20日21時 EAST ~ 21日23時 EAST に徐々に
風向・風速南東 5m/s
全天の4割程度の雲 雲底高度 610m
全天の8割程度の雲 雲底高度 1220m
TAF COR SCIP 211045Z 2112/2212 17010KT 9999 SCT025 BKN050 TX23/2120Z TN19/2210Z
TEMPO 2112/2114 14015KT 7000 -SHRA SCT020 BKN040
BECMG 2115/2117 14015KT FEW025 SCT050
TEMPO 2120/2201 11020KT 7000 -SHRA SCT020 BKN040
BECMG 2102/2204 14010KT SCT020 BKN040